< < Back
Terminal Aerodrome Forecast


Current Version              Previous Versions:   1  2  3  4  5  6  7  8  9  

Terminal Aerodrome Forecast

693
FTUS42 KFFC 292330
TAFPDK
TAF
KPDK 292330Z 3000/3024 00000KT P6SM BKN250
     FM301500 14004KT P6SM SCT035
     FM301800 17010KT P6SM BKN050 PROB30 3018/3024 4SM -TSRA BR
      BKN030CB=

Latest METAR

323
SAUS70 KWBC 292300
MTRPDK
METAR KPDK 292253Z 28004KT 10SM CLR 28/10 A2995 RMK AO2 SLP130
T02830100


USA.gov is the U.S. government's official web portal to all federal, state and local government web resources and services.